Time;durP1;ratioP1;P1;durP2;ratioP2;P2;SDS_P1;SDS_P2;PMS_P1;PMS_P2;Temp;Humidity;BMP_temperature;BMP_pressure;BME280_temperature;BME280_humidity;BME280_pressure;Samples;Min_cycle;Max_cycle;Signal;HPM_P1;HPM_P2
2021/08/18 00:02:34;;;;;;;15.90;11.97;;;;;;;17.61;59.59;98052.59;8386246;28;20452;-86
2021/08/18 00:06:37;;;;;;;17.17;12.20;;;;;;;17.63;59.92;98047.22;8387267;28;20231;-86
2021/08/18 00:10:41;;;;;;;17.40;12.17;;;;;;;17.56;60.08;98037.19;8386782;28;20207;-87
2021/08/18 00:14:46;;;;;;;17.13;12.00;;;;;;;17.68;59.77;98051.19;8386593;28;20227;-86
2021/08/18 00:18:52;;;;;;;15.60;11.90;;;;;;;17.71;59.38;98050.13;8386555;28;20510;-86
2021/08/18 00:22:55;;;;;;;16.27;11.70;;;;;;;17.70;59.03;98045.84;8386444;28;20212;-86
2021/08/18 00:26:57;;;;;;;15.77;11.63;;;;;;;17.73;59.49;98043.00;8386239;28;20483;-87
2021/08/18 00:31:16;;;;;;;17.50;12.23;;;;;;;17.72;59.09;98034.28;8386178;28;20231;-86
2021/08/18 00:35:19;;;;;;;17.97;11.80;;;;;;;17.76;59.40;98037.53;8386577;28;20242;-85
2021/08/18 00:39:21;;;;;;;14.90;11.83;;;;;;;17.70;59.99;98032.75;8385985;28;20235;-86
2021/08/18 00:43:25;;;;;;;14.80;11.83;;;;;;;17.53;60.25;98033.94;8386287;28;20424;-86
2021/08/18 00:47:29;;;;;;;16.20;12.20;;;;;;;17.57;59.56;98038.00;8385898;28;20386;-86
2021/08/18 00:51:32;;;;;;;18.43;11.80;;;;;;;17.69;59.52;98034.53;8385953;28;20491;-86
2021/08/18 00:55:35;;;;;;;15.50;12.23;;;;;;;17.62;60.49;98029.84;8384448;28;20224;-86
2021/08/18 00:59:38;;;;;;;18.63;13.17;;;;;;;17.60;60.32;98022.09;8385035;28;20219;-86
2021/08/18 01:03:42;;;;;;;18.73;13.27;;;;;;;17.58;60.62;98026.63;8384706;28;20210;-86
2021/08/18 01:07:46;;;;;;;18.73;13.80;;;;;;;17.67;60.38;98020.72;8384783;28;20200;-86
2021/08/18 01:11:51;;;;;;;19.27;13.33;;;;;;;17.69;60.47;98018.81;8384546;28;20393;-86
2021/08/18 01:15:53;;;;;;;18.43;13.47;;;;;;;17.67;60.35;98012.84;8384688;28;20223;-84
2021/08/18 01:19:58;;;;;;;17.47;13.83;;;;;;;17.68;60.25;98011.91;8384400;28;20203;-84
2021/08/18 01:24:01;;;;;;;19.07;13.53;;;;;;;17.62;60.63;98012.34;8384254;28;20207;-86
2021/08/18 01:28:05;;;;;;;16.70;13.27;;;;;;;17.59;60.96;98012.56;8384751;28;20204;-86
2021/08/18 01:32:09;;;;;;;23.53;14.10;;;;;;;17.61;60.71;98015.94;8384186;28;20483;-84
2021/08/18 01:36:12;;;;;;;18.60;14.03;;;;;;;17.53;60.66;98013.00;8383739;28;20236;-85
2021/08/18 01:40:15;;;;;;;19.17;13.70;;;;;;;17.40;61.51;98010.44;8383842;28;20242;-85
2021/08/18 01:44:18;;;;;;;18.30;12.90;;;;;;;17.50;60.97;98008.84;8391006;28;20203;-84
2021/08/18 01:48:24;;;;;;;16.80;13.37;;;;;;;17.60;60.88;98011.63;8383540;28;20199;-84
2021/08/18 01:52:26;;;;;;;16.10;13.23;;;;;;;17.66;60.48;98013.78;8383685;28;20222;-84
2021/08/18 01:56:29;;;;;;;18.30;13.90;;;;;;;17.55;60.95;98011.97;8383262;28;20223;-84
2021/08/18 02:00:32;;;;;;;19.13;14.33;;;;;;;17.49;61.41;98011.56;8383262;28;20199;-85
2021/08/18 02:04:36;;;;;;;18.17;13.93;;;;;;;17.54;60.73;98019.94;8383073;28;20220;-90
2021/08/18 02:08:40;;;;;;;19.13;14.03;;;;;;;17.58;61.41;98016.97;8383541;28;20382;-89
2021/08/18 02:12:43;;;;;;;21.13;14.40;;;;;;;17.62;61.63;98017.59;8383616;28;20200;-91
2021/08/18 02:16:46;;;;;;;17.63;13.83;;;;;;;17.58;61.33;98011.72;8383663;28;20200;-91
2021/08/18 02:20:50;;;;;;;20.43;14.87;;;;;;;17.52;62.14;98020.03;8383095;28;20204;-92
2021/08/18 02:24:53;;;;;;;18.70;14.63;;;;;;;17.62;61.92;98011.53;8382917;28;20206;-91
2021/08/18 02:28:55;;;;;;;18.47;14.60;;;;;;;17.67;61.89;98010.25;8383101;28;20397;-88
2021/08/18 02:32:59;;;;;;;19.00;13.40;;;;;;;17.65;61.88;98006.91;8382868;28;20204;-88
2021/08/18 02:37:03;;;;;;;18.47;13.13;;;;;;;17.56;62.08;98010.19;8382147;28;20200;-89
2021/08/18 02:41:06;;;;;;;16.70;12.33;;;;;;;17.68;61.77;98011.06;8382320;28;20199;-88
2021/08/18 02:45:10;;;;;;;16.80;12.70;;;;;;;17.70;62.14;98014.41;8382283;28;20512;-88
2021/08/18 02:49:13;;;;;;;18.73;12.70;;;;;;;17.69;62.01;98010.13;8382272;28;20199;-89
2021/08/18 02:53:17;;;;;;;15.33;12.17;;;;;;;17.66;62.08;98008.56;8382281;28;20234;-87
2021/08/18 02:57:20;;;;;;;17.03;12.30;;;;;;;17.66;62.10;98000.69;8382302;28;20203;-87
2021/08/18 03:01:23;;;;;;;16.77;12.47;;;;;;;17.70;62.08;98006.56;8381885;28;20620;-86
2021/08/18 03:05:26;;;;;;;16.03;12.17;;;;;;;17.69;62.05;98003.09;8381845;28;20546;-86
2021/08/18 03:09:30;;;;;;;14.90;11.57;;;;;;;17.72;62.13;98009.88;8382038;28;20401;-87
2021/08/18 03:13:33;;;;;;;17.00;12.20;;;;;;;17.68;62.05;98006.66;8381520;28;20227;-87
2021/08/18 03:17:35;;;;;;;16.23;12.30;;;;;;;17.70;61.90;98001.31;8382789;28;20207;-86
2021/08/18 03:21:38;;;;;;;18.70;12.90;;;;;;;17.72;62.03;98002.03;8388555;28;20200;-87
2021/08/18 03:25:42;;;;;;;16.03;12.43;;;;;;;17.82;62.09;98004.81;8389462;28;20499;-86
2021/08/18 03:29:45;;;;;;;17.47;11.40;;;;;;;17.71;61.97;98006.44;8388116;28;20207;-86
2021/08/18 03:33:48;;;;;;;14.67;11.63;;;;;;;17.79;61.61;98003.25;8387956;28;20238;-86
2021/08/18 03:37:52;;;;;;;15.33;12.07;;;;;;;17.76;62.16;97999.09;8387156;28;20250;-86
2021/08/18 03:41:56;;;;;;;16.07;11.77;;;;;;;17.70;62.36;97999.53;8389382;28;20207;-87
2021/08/18 03:45:59;;;;;;;15.30;11.60;;;;;;;17.66;62.73;98005.94;8390819;28;20210;-88
2021/08/18 03:50:01;;;;;;;17.27;12.33;;;;;;;17.54;62.83;98009.47;8388820;28;20498;-87
2021/08/18 03:54:04;;;;;;;15.30;12.37;;;;;;;17.56;63.06;98002.31;8387589;28;20224;-87
2021/08/18 03:58:08;;;;;;;16.37;11.60;;;;;;;17.77;62.32;98000.75;8387278;28;20386;-87
2021/08/18 04:02:11;;;;;;;17.00;12.23;;;;;;;17.60;63.01;98003.78;8387082;28;20195;-88
2021/08/18 04:06:14;;;;;;;16.07;11.57;;;;;;;17.72;62.71;98002.03;8387655;28;20223;-90
2021/08/18 04:10:17;;;;;;;16.90;12.07;;;;;;;17.71;62.42;98011.69;8388308;28;20203;-91
2021/08/18 04:14:21;;;;;;;14.17;11.50;;;;;;;17.81;62.62;98017.09;8389481;28;20224;-91
2021/08/18 04:18:24;;;;;;;15.70;11.47;;;;;;;17.71;62.95;98016.91;8387602;28;20199;-89
2021/08/18 04:22:26;;;;;;;16.17;12.20;;;;;;;17.62;63.21;98008.91;8387200;28;20199;-90
2021/08/18 04:26:29;;;;;;;17.67;11.53;;;;;;;17.68;62.71;97998.81;8391669;28;20203;-89
2021/08/18 04:30:33;;;;;;;15.97;12.43;;;;;;;17.59;63.37;98002.09;8391667;28;20208;-90
2021/08/18 04:34:36;;;;;;;16.47;12.53;;;;;;;17.74;62.84;98000.13;8387077;28;20391;-89
2021/08/18 04:38:39;;;;;;;19.57;11.17;;;;;;;17.64;62.76;98007.84;8386679;28;20239;-89
2021/08/18 04:42:43;;;;;;;15.07;11.50;;;;;;;17.65;62.90;97999.03;8386374;28;20505;-89
2021/08/18 04:46:47;;;;;;;17.23;12.10;;;;;;;17.74;62.75;98006.22;8386261;28;20207;-89
2021/08/18 04:50:50;;;;;;;15.63;11.80;;;;;;;17.82;62.93;98010.06;8386099;28;20223;-89
2021/08/18 04:54:53;;;;;;;19.23;12.57;;;;;;;17.66;63.22;98012.97;8385729;28;20420;-90
2021/08/18 04:58:56;;;;;;;15.73;11.10;;;;;;;17.81;62.65;97997.91;8385472;28;20199;-90
2021/08/18 05:03:00;;;;;;;13.47;10.50;;;;;;;17.82;62.39;97995.19;8385222;28;20200;-90
2021/08/18 05:07:03;;;;;;;16.83;11.60;;;;;;;17.76;62.63;97996.47;8385378;28;20445;-90
2021/08/18 05:11:06;;;;;;;13.80;10.47;;;;;;;17.72;62.90;97992.38;8385427;28;20211;-90
2021/08/18 05:15:10;;;;;;;15.07;10.87;;;;;;;17.70;63.31;98002.13;8385308;28;20230;-90
2021/08/18 05:19:14;;;;;;;15.07;11.10;;;;;;;17.70;63.10;98006.56;8385441;28;20199;-90
2021/08/18 05:23:17;;;;;;;13.10;10.53;;;;;;;17.76;62.97;98011.34;8385187;28;20499;-90
2021/08/18 05:27:19;;;;;;;12.77;9.43;;;;;;;17.70;62.94;98014.41;8384559;28;20215;-86
2021/08/18 05:31:22;;;;;;;12.87;10.40;;;;;;;17.70;63.21;98012.63;8384007;28;20200;-87
2021/08/18 05:35:27;;;;;;;12.13;9.77;;;;;;;17.74;62.91;98011.47;8384344;28;20235;-87
2021/08/18 05:39:29;;;;;;;14.70;10.37;;;;;;;17.80;63.23;98020.66;8384617;28;20223;-88
2021/08/18 05:43:32;;;;;;;13.60;9.90;;;;;;;17.83;62.96;98024.84;8383822;28;20218;-89
2021/08/18 05:47:36;;;;;;;11.13;9.13;;;;;;;17.88;62.80;98017.50;8383735;28;20203;-87
2021/08/18 05:51:40;;;;;;;14.47;9.70;;;;;;;17.70;63.43;98019.66;8383514;28;20200;-87
2021/08/18 05:55:42;;;;;;;12.33;9.03;;;;;;;17.82;63.12;98020.53;8383468;28;20231;-89
2021/08/18 05:59:45;;;;;;;13.63;9.50;;;;;;;17.76;63.29;98027.06;8384314;28;20383;-88
2021/08/18 06:03:48;;;;;;;12.93;9.10;;;;;;;17.86;62.96;98017.63;8383114;28;20232;-88
2021/08/18 06:07:52;;;;;;;12.60;9.67;;;;;;;17.96;62.66;98025.63;8383375;28;20225;-85
2021/08/18 06:11:55;;;;;;;14.73;9.47;;;;;;;17.89;63.20;98030.47;8383607;28;20507;-87
2021/08/18 06:15:58;;;;;;;13.03;8.70;;;;;;;18.01;62.81;98027.91;8384397;28;20223;-85
2021/08/18 06:20:00;;;;;;;14.37;9.37;;;;;;;17.87;63.61;98037.63;8382994;28;20210;-84
2021/08/18 06:24:13;;;;;;;12.03;8.53;;;;;;;17.86;63.62;98029.88;8382784;28;20206;-85
2021/08/18 06:28:16;;;;;;;12.27;8.50;;;;;;;17.90;63.47;98021.69;8382868;28;20200;-85
2021/08/18 06:32:19;;;;;;;10.27;8.13;;;;;;;17.89;63.37;98030.47;8382988;28;20215;-85
2021/08/18 06:36:22;;;;;;;10.00;7.97;;;;;;;17.97;62.83;98028.16;8382962;28;20246;-85
2021/08/18 06:40:26;;;;;;;21.27;9.37;;;;;;;17.94;63.52;98019.69;8382716;28;20430;-85
2021/08/18 06:44:29;;;;;;;22.20;9.13;;;;;;;18.07;63.17;98024.84;8382763;28;20203;-83
2021/08/18 06:48:31;;;;;;;14.97;8.13;;;;;;;18.06;63.22;98023.16;8382191;28;20200;-82
2021/08/18 06:52:34;;;;;;;11.27;7.23;;;;;;;18.06;63.64;98029.25;8383436;28;20203;-83
2021/08/18 06:56:38;;;;;;;8.83;7.10;;;;;;;18.07;63.57;98030.09;8389097;28;20223;-82
2021/08/18 07:00:41;;;;;;;8.70;7.40;;;;;;;18.15;63.60;98028.56;8388159;28;20203;-83
2021/08/18 07:04:44;;;;;;;10.00;7.10;;;;;;;18.09;63.91;98036.88;8386543;28;20412;-84
2021/08/18 07:08:47;;;;;;;9.20;7.47;;;;;;;17.92;64.17;98039.91;8388817;28;20199;-84
2021/08/18 07:12:51;;;;;;;10.63;7.30;;;;;;;18.14;64.32;98036.53;8388905;28;20514;-83
2021/08/18 07:16:54;;;;;;;9.33;7.20;;;;;;;18.14;63.72;98037.38;8388940;28;20645;-83
2021/08/18 07:20:57;;;;;;;8.00;6.53;;;;;;;18.21;63.79;98043.00;8388457;28;20206;-83
2021/08/18 07:25:00;;;;;;;7.73;6.27;;;;;;;18.10;63.47;98041.16;8388814;28;20204;-84
2021/08/18 07:29:04;;;;;;;7.20;6.07;;;;;;;18.19;63.32;98042.28;8388247;28;20200;-85
2021/08/18 07:33:07;;;;;;;10.03;6.53;;;;;;;18.21;63.56;98040.38;8388168;28;20199;-84
2021/08/18 07:37:10;;;;;;;7.30;5.90;;;;;;;18.21;64.11;98044.78;8387883;28;20253;-85
2021/08/18 07:41:12;;;;;;;8.57;5.87;;;;;;;18.20;64.05;98045.72;8385878;28;20223;-87
2021/08/18 07:45:16;;;;;;;10.83;5.80;;;;;;;18.26;63.38;98042.63;8388126;28;20203;-87
2021/08/18 07:49:19;;;;;;;8.70;6.40;;;;;;;18.24;63.62;98049.78;8387654;28;20386;-82
2021/08/18 07:53:22;;;;;;;7.73;5.87;;;;;;;18.19;64.08;98050.13;8379807;28;20211;-82
2021/08/18 07:57:25;;;;;;;6.87;5.63;;;;;;;18.21;63.68;98047.41;8387108;28;20411;-83
2021/08/18 08:01:29;;;;;;;9.10;6.00;;;;;;;18.25;63.73;98056.72;8386781;28;20218;-84
2021/08/18 08:05:32;;;;;;;8.17;5.90;;;;;;;18.25;63.56;98052.28;8386580;28;20234;-83
2021/08/18 08:09:35;;;;;;;6.37;5.50;;;;;;;18.29;63.36;98056.34;8386900;28;20211;-83
2021/08/18 08:13:38;;;;;;;7.97;5.03;;;;;;;18.80;62.89;98057.81;8373415;28;20385;-81
2021/08/18 08:17:42;;;;;;;11.10;5.57;;;;;;;19.10;61.61;98054.63;8370216;28;20506;-82
2021/08/18 08:21:45;;;;;;;6.70;5.40;;;;;;;19.10;61.22;98057.25;8369478;28;20193;-82
2021/08/18 08:25:47;;;;;;;5.80;4.83;;;;;;;19.33;60.29;98060.69;8369519;28;20196;-83
2021/08/18 08:29:50;;;;;;;7.93;5.03;;;;;;;19.28;60.40;98057.59;8369316;28;20207;-83
2021/08/18 08:33:54;;;;;;;7.10;5.03;;;;;;;19.34;60.41;98067.63;8369101;28;20380;-84
2021/08/18 08:37:57;;;;;;;6.67;5.00;;;;;;;19.48;59.95;98063.91;8368049;28;20258;-85
2021/08/18 08:42:02;;;;;;;13.53;5.03;;;;;;;19.57;59.82;98054.44;8358881;28;20197;-86
2021/08/18 08:46:06;;;;;;;6.97;5.30;;;;;;;19.56;59.24;98060.66;8353428;28;20204;-85
2021/08/18 08:50:13;;;;;;;8.43;4.53;;;;;;;19.62;59.36;98065.41;8353269;28;20213;-85
2021/08/18 08:54:16;;;;;;;6.37;4.77;;;;;;;19.46;59.35;98072.88;8353166;28;20206;-83
2021/08/18 08:58:19;;;;;;;6.53;4.83;;;;;;;19.44;59.40;98072.13;8355012;28;20255;-84
2021/08/18 09:02:22;;;;;;;9.57;4.83;;;;;;;19.68;59.21;98074.59;8361549;28;20207;-86
2021/08/18 09:06:27;;;;;;;10.80;4.83;;;;;;;19.77;58.97;98081.78;8385575;28;20265;-84
2021/08/18 09:10:30;;;;;;;5.77;4.63;;;;;;;19.92;58.46;98087.59;8386723;28;20203;-85
2021/08/18 09:14:33;;;;;;;6.00;4.83;;;;;;;19.67;59.40;98081.66;8385197;28;20207;-84
2021/08/18 09:18:41;;;;;;;8.23;4.40;;;;;;;19.95;58.45;98083.88;8384689;28;20236;-83
2021/08/18 09:22:47;;;;;;;6.33;4.77;;;;;;;19.90;58.70;98076.38;8356431;28;20204;-83
2021/08/18 09:26:52;;;;;;;9.13;4.23;;;;;;;20.33;57.57;98069.41;8379955;28;20207;-83
2021/08/18 09:30:58;;;;;;;25.67;7.50;;;;;;;20.20;57.48;98074.81;8375695;28;20433;-84
2021/08/18 09:35:03;;;;;;;8.47;4.23;;;;;;;21.03;55.60;98071.38;8351540;28;20200;-84
2021/08/18 09:39:20;;;;;;;8.10;4.67;;;;;;;20.66;56.41;98060.53;8351306;28;20244;-86
2021/08/18 09:43:25;;;;;;;19.77;5.00;;;;;;;20.60;56.70;98063.66;8351694;28;20206;-86
2021/08/18 09:47:28;;;;;;;9.57;4.57;;;;;;;20.67;56.84;98060.38;8355479;28;20492;-83
2021/08/18 09:51:31;;;;;;;11.30;4.50;;;;;;;20.76;56.74;98066.69;8367311;28;20196;-84
2021/08/18 09:55:37;;;;;;;10.90;4.37;;;;;;;20.76;56.63;98071.94;8366298;28;20202;-85
2021/08/18 09:59:43;;;;;;;9.33;4.83;;;;;;;20.58;57.42;98068.19;8366420;28;20202;-82
2021/08/18 10:03:49;;;;;;;5.70;4.20;;;;;;;20.63;56.83;98072.13;8367289;28;20213;-82
2021/08/18 10:07:57;;;;;;;8.60;4.37;;;;;;;20.48;57.50;98076.84;8377927;28;20495;-85
2021/08/18 10:12:01;;;;;;;5.20;4.37;;;;;;;20.33;57.50;98090.44;8376855;28;20199;-83
2021/08/18 10:16:04;;;;;;;8.10;4.37;;;;;;;20.61;57.65;98078.50;8360892;28;20232;-84
2021/08/18 10:20:08;;;;;;;9.67;4.67;;;;;;;20.71;56.78;98076.75;8350754;28;20200;-86
2021/08/18 10:24:32;;;;;;;8.07;4.63;;;;;;;20.76;55.98;98060.59;8350281;28;20196;-84
2021/08/18 10:29:01;;;;;;;6.90;5.50;;;;;;;20.88;55.37;98054.28;8350393;28;20212;-84
2021/08/18 10:33:07;;;;;;;7.40;4.60;;;;;;;20.64;56.59;98071.19;8361959;28;20207;-83
2021/08/18 10:37:25;;;;;;;6.10;4.67;;;;;;;20.92;55.06;98062.75;8350112;28;20401;-83
2021/08/18 10:41:59;;;;;;;5.47;4.60;;;;;;;20.99;54.28;98066.53;8360502;28;20194;-84
2021/08/18 10:46:03;;;;;;;19.17;4.73;;;;;;;21.19;55.76;98065.66;8365345;28;20191;-85
2021/08/18 10:50:40;;;;;;;5.73;4.50;;;;;;;21.20;54.92;98058.56;8349640;28;20487;-83
2021/08/18 10:54:45;;;;;;;6.20;4.17;;;;;;;21.00;54.31;98066.41;8376657;28;20383;-81
2021/08/18 10:58:48;;;;;;;6.87;4.73;;;;;;;20.80;55.56;98060.19;8376555;28;20228;-82
2021/08/18 11:03:01;;;;;;;8.03;4.40;;;;;;;20.95;55.15;98063.31;8378980;28;20196;-82
2021/08/18 11:07:05;;;;;;;11.43;5.00;;;;;;;21.37;55.29;98057.94;8373567;28;20286;-83
2021/08/18 11:11:13;;;;;;;7.67;5.73;;;;;;;21.40;53.82;98057.69;8367007;28;20192;-84
2021/08/18 11:15:50;;;;;;;8.57;5.00;;;;;;;21.69;53.27;98058.75;8370668;28;20203;-83
2021/08/18 11:19:54;;;;;;;7.83;4.43;;;;;;;21.98;53.28;98053.50;8382454;28;20326;-86
2021/08/18 11:23:59;;;;;;;4.83;4.00;;;;;;;21.95;51.49;98051.13;8382220;28;20199;-88
2021/08/18 11:28:02;;;;;;;5.80;4.27;;;;;;;22.25;52.00;98047.56;8382444;28;20522;-87
2021/08/18 11:32:05;;;;;;;7.13;4.30;;;;;;;22.00;51.88;98048.94;8382110;28;20226;-85
2021/08/18 11:36:17;;;;;;;4.30;3.77;;;;;;;21.97;51.93;98043.91;8382153;28;20209;-85
2021/08/18 11:40:20;;;;;;;8.87;4.03;;;;;;;21.79;53.48;98049.06;8385691;28;20231;-82
2021/08/18 11:44:28;;;;;;;7.17;3.93;;;;;;;21.76;53.47;98044.03;8385258;28;20203;-83
2021/08/18 11:48:31;;;;;;;9.87;3.97;;;;;;;21.56;52.89;98041.38;8370456;28;20197;-84
2021/08/18 11:52:35;;;;;;;4.20;3.70;;;;;;;21.58;52.32;98046.53;8371485;28;20290;-83
2021/08/18 11:56:38;;;;;;;7.73;3.63;;;;;;;21.62;53.37;98054.00;8387661;28;20222;-84
2021/08/18 12:00:42;;;;;;;5.60;3.40;;;;;;;22.42;51.15;98052.13;8388701;28;20518;-83
2021/08/18 12:04:45;;;;;;;7.60;3.60;;;;;;;22.61;50.05;98045.97;8385784;28;20644;-83
2021/08/18 12:08:49;;;;;;;5.40;3.37;;;;;;;22.64;50.37;98045.72;8387297;28;20203;-83
2021/08/18 12:13:03;;;;;;;10.37;4.00;;;;;;;22.44;49.69;98038.81;8362203;28;20223;-83
2021/08/18 12:17:08;;;;;;;13.70;3.63;;;;;;;22.56;50.16;98037.69;8354188;28;20228;-83
2021/08/18 12:21:18;;;;;;;8.27;3.73;;;;;;;22.40;50.62;98042.69;8354061;28;20498;-82
2021/08/18 12:25:29;;;;;;;4.23;3.13;;;;;;;21.94;51.31;98038.94;8353857;28;20518;-83
2021/08/18 12:29:33;;;;;;;7.83;3.37;;;;;;;21.59;53.19;98041.13;8353821;28;20412;-83
2021/08/18 12:33:36;;;;;;;7.23;3.20;;;;;;;21.60;53.27;98045.41;8353426;28;20271;-82
2021/08/18 12:37:42;;;;;;;4.70;3.50;;;;;;;21.61;52.69;98036.53;8353119;28;20579;-85
2021/08/18 12:41:56;;;;;;;7.50;3.67;;;;;;;21.71;52.56;98041.84;8353277;28;20213;-83
2021/08/18 12:45:59;;;;;;;4.90;3.63;;;;;;;21.72;52.77;98038.22;8353084;28;20308;-83
2021/08/18 12:50:02;;;;;;;7.77;3.47;;;;;;;21.91;52.12;98028.66;8351896;28;20209;-83
2021/08/18 12:54:05;;;;;;;18.97;4.53;;;;;;;21.72;53.25;98029.47;8360777;28;20205;-81
2021/08/18 12:58:17;;;;;;;13.47;3.53;;;;;;;21.71;53.15;98028.66;8357480;28;20569;-81
2021/08/18 13:02:20;;;;;;;16.23;3.70;;;;;;;21.58;53.31;98023.63;8385501;28;20200;-85
2021/08/18 13:06:23;;;;;;;7.17;3.03;;;;;;;21.78;52.69;98016.59;8385670;28;20223;-84
2021/08/18 13:10:27;;;;;;;15.17;3.93;;;;;;;21.74;52.97;98024.91;8385698;28;20204;-83
2021/08/18 13:14:32;;;;;;;6.93;3.07;;;;;;;21.81;52.20;98012.84;8386041;28;20228;-83
2021/08/18 13:18:35;;;;;;;4.77;3.43;;;;;;;21.71;52.70;98014.66;8385508;28;20231;-84
2021/08/18 13:22:38;;;;;;;5.73;3.10;;;;;;;21.66;52.75;98010.59;8386158;28;20211;-84
2021/08/18 13:26:42;;;;;;;4.30;2.77;;;;;;;21.88;52.45;98005.22;8387258;28;20203;-84
2021/08/18 13:30:47;;;;;;;3.17;2.87;;;;;;;22.00;51.42;97994.38;8388328;28;20577;-84
2021/08/18 13:34:52;;;;;;;4.10;2.90;;;;;;;22.23;51.21;97987.00;8386311;28;20484;-82
2021/08/18 13:38:59;;;;;;;3.77;2.97;;;;;;;22.31;51.06;97994.25;8386188;28;20432;-84
2021/08/18 13:43:03;;;;;;;3.00;2.70;;;;;;;22.21;51.32;97996.03;8385039;28;20534;-83
2021/08/18 13:47:09;;;;;;;3.23;2.70;;;;;;;22.13;50.85;97986.19;8385044;28;20203;-84
2021/08/18 13:51:12;;;;;;;7.37;2.97;;;;;;;22.10;51.78;97980.38;8384628;28;20203;-83
2021/08/18 13:55:16;;;;;;;3.13;2.40;;;;;;;21.97;51.30;97976.22;8384182;28;20484;-83
2021/08/18 13:59:19;;;;;;;2.80;2.50;;;;;;;22.32;50.01;97985.38;8384212;28;20247;-85
2021/08/18 14:03:24;;;;;;;5.33;2.30;;;;;;;22.41;49.72;97973.16;8383348;28;20198;-84
2021/08/18 14:07:28;;;;;;;7.93;2.40;;;;;;;22.40;50.44;97976.75;8384355;28;20192;-84
2021/08/18 14:11:31;;;;;;;2.07;1.97;;;;;;;22.35;50.15;97971.06;8383843;28;20205;-84
2021/08/18 14:15:48;;;;;;;2.23;2.03;;;;;;;22.23;50.12;97968.53;8384356;28;20207;-84
2021/08/18 14:19:53;;;;;;;2.63;1.90;;;;;;;22.72;49.58;97983.47;8383097;28;20223;-84
2021/08/18 14:23:56;;;;;;;2.70;2.00;;;;;;;22.79;49.10;97977.47;8383407;28;20373;-83
2021/08/18 14:27:59;;;;;;;2.80;2.33;;;;;;;22.86;49.16;97984.78;8383439;28;20206;-83
2021/08/18 14:32:03;;;;;;;2.63;2.40;;;;;;;22.71;49.14;97979.16;8366014;28;20201;-85
2021/08/18 14:36:07;;;;;;;2.90;2.10;;;;;;;22.59;49.43;97981.13;8377609;28;20411;-85
2021/08/18 14:40:11;;;;;;;2.40;2.03;;;;;;;22.38;49.43;97971.59;8381597;28;20244;-84
2021/08/18 14:44:14;;;;;;;3.37;2.33;;;;;;;22.31;49.76;97972.31;8361906;28;20390;-84
2021/08/18 14:48:17;;;;;;;7.17;2.23;;;;;;;22.55;49.82;97967.38;8371637;28;20206;-85
2021/08/18 14:52:21;;;;;;;2.47;2.07;;;;;;;22.54;49.84;97971.03;8382677;28;20209;-86
2021/08/18 14:56:24;;;;;;;5.57;2.03;;;;;;;22.51;49.60;97963.38;8381216;28;20212;-86
2021/08/18 15:00:27;;;;;;;5.33;2.10;;;;;;;22.37;49.87;97963.81;8381193;28;20223;-86
2021/08/18 15:04:30;;;;;;;3.00;1.93;;;;;;;22.45;49.39;97967.41;8380817;28;20285;-87
2021/08/18 15:08:34;;;;;;;1.70;1.60;;;;;;;22.52;49.27;97966.84;8381001;28;20225;-85
2021/08/18 15:12:37;;;;;;;2.47;2.00;;;;;;;22.43;49.91;97964.09;8380846;28;20494;-86
2021/08/18 15:16:40;;;;;;;2.17;1.90;;;;;;;22.55;49.24;97959.47;8383291;28;20199;-84
2021/08/18 15:20:43;;;;;;;7.60;1.70;;;;;;;22.53;49.37;97957.97;8386668;28;20230;-84
2021/08/18 15:24:47;;;;;;;2.60;1.80;;;;;;;22.36;50.14;97957.72;8373813;28;20198;-84
2021/08/18 15:28:50;;;;;;;2.67;1.70;;;;;;;22.24;50.36;97954.41;8364248;28;20574;-84
2021/08/18 15:32:54;;;;;;;2.03;1.50;;;;;;;22.46;49.83;97960.34;8354523;28;20200;-86
2021/08/18 15:36:57;;;;;;;3.90;1.90;;;;;;;22.19;49.96;97961.06;8354120;28;20203;-85
2021/08/18 15:41:04;;;;;;;3.07;2.00;;;;;;;22.12;49.89;97955.50;8327459;28;1099972;-85
2021/08/18 15:45:09;;;;;;;4.43;1.93;;;;;;;22.19;50.27;97948.69;8370754;28;20199;-83
2021/08/18 15:49:11;;;;;;;2.90;2.07;;;;;;;22.13;50.47;97951.09;8373229;28;20203;-86
2021/08/18 15:53:15;;;;;;;2.30;1.70;;;;;;;21.93;50.87;97945.81;8370225;28;20192;-84
2021/08/18 15:57:19;;;;;;;2.17;1.50;;;;;;;22.09;50.22;97947.91;8370053;28;20518;-84
2021/08/18 16:01:22;;;;;;;3.13;1.70;;;;;;;21.91;51.07;97950.41;8370297;28;20222;-83
2021/08/18 16:05:25;;;;;;;2.20;1.80;;;;;;;22.09;50.53;97954.97;8370673;28;20499;-83
2021/08/18 16:09:29;;;;;;;4.33;1.60;;;;;;;21.89;50.70;97939.16;8368988;28;20202;-84
2021/08/18 16:13:33;;;;;;;2.10;1.90;;;;;;;21.91;50.58;97941.66;8369590;28;20198;-84
2021/08/18 16:17:36;;;;;;;2.10;1.70;;;;;;;21.96;50.98;97934.19;8369489;28;20496;-83
2021/08/18 16:21:39;;;;;;;2.80;1.60;;;;;;;21.96;50.72;97937.63;8371202;28;20228;-84
2021/08/18 16:25:42;;;;;;;2.30;1.77;;;;;;;21.85;51.42;97928.06;8373892;28;20205;-83
2021/08/18 16:29:46;;;;;;;1.83;1.37;;;;;;;21.85;51.27;97929.88;8369444;28;20396;-84
2021/08/18 16:33:49;;;;;;;2.63;1.70;;;;;;;21.83;51.55;97923.91;8383080;28;20200;-82
2021/08/18 16:37:52;;;;;;;3.50;2.00;;;;;;;21.76;51.86;97925.44;8386249;28;20235;-83
2021/08/18 16:41:55;;;;;;;6.97;1.80;;;;;;;21.73;52.09;97925.75;8403153;28;20199;-82
2021/08/18 16:45:59;;;;;;;4.07;1.90;;;;;;;21.79;52.07;97928.63;8419428;28;20360;-83
2021/08/18 16:50:02;;;;;;;2.10;1.57;;;;;;;21.84;51.68;97925.59;8389282;28;20386;-83
2021/08/18 16:54:05;;;;;;;4.50;1.87;;;;;;;21.71;51.86;97920.59;8385760;28;20200;-84
2021/08/18 16:58:09;;;;;;;2.97;1.80;;;;;;;21.76;51.60;97912.25;8385532;28;20224;-84
2021/08/18 17:02:13;;;;;;;3.93;1.90;;;;;;;21.67;51.92;97919.22;8385943;28;20206;-84
2021/08/18 17:06:17;;;;;;;2.13;1.63;;;;;;;21.67;51.42;97917.41;8386168;28;20455;-83
2021/08/18 17:10:20;;;;;;;4.93;1.80;;;;;;;21.75;51.87;97913.25;8381252;28;20536;-86
2021/08/18 17:14:22;;;;;;;8.77;1.80;;;;;;;21.76;51.62;97913.13;8364964;28;20202;-83
2021/08/18 17:18:35;;;;;;;6.20;2.00;;;;;;;21.77;51.51;97914.75;8387684;28;20232;-84
2021/08/18 17:22:38;;;;;;;3.30;1.70;;;;;;;21.80;52.05;97911.84;8387819;28;20550;-85
2021/08/18 17:26:41;;;;;;;2.87;1.70;;;;;;;21.77;51.79;97900.75;8387706;28;20400;-84
2021/08/18 17:30:44;;;;;;;6.47;2.67;;;;;;;21.75;52.11;97907.97;8384706;28;20208;-85
2021/08/18 17:34:48;;;;;;;9.97;4.80;;;;;;;21.74;52.32;97909.78;8384882;28;20385;-85
2021/08/18 17:38:51;;;;;;;5.60;3.70;;;;;;;21.69;52.45;97903.28;8383618;28;20427;-83
2021/08/18 17:42:56;;;;;;;4.13;3.00;;;;;;;21.65;52.68;97906.19;8384619;28;20204;-84
2021/08/18 17:46:58;;;;;;;7.63;3.23;;;;;;;21.63;52.48;97904.66;8387948;28;20201;-83
2021/08/18 17:51:03;;;;;;;5.07;2.50;;;;;;;21.65;52.74;97908.81;8384668;28;20203;-84
2021/08/18 17:55:06;;;;;;;7.03;2.10;;;;;;;21.63;53.11;97920.47;8383926;28;20212;-92
2021/08/18 17:59:09;;;;;;;4.53;2.10;;;;;;;21.60;53.12;97918.94;8375539;28;20537;-86
2021/08/18 18:03:12;;;;;;;28.70;2.80;;;;;;;21.59;53.11;97919.91;8357037;28;20207;-83
2021/08/18 18:07:17;;;;;;;4.23;1.90;;;;;;;21.53;53.50;97919.63;8350500;28;20297;-81
2021/08/18 18:11:20;;;;;;;6.93;2.07;;;;;;;21.49;53.86;97916.44;8350464;28;20218;-81
2021/08/18 18:15:23;;;;;;;2.57;1.80;;;;;;;21.36;53.63;97919.31;8375441;28;20204;-79
2021/08/18 18:19:26;;;;;;;2.67;1.87;;;;;;;21.21;53.24;97915.38;8383160;28;20238;-80
2021/08/18 18:23:31;;;;;;;3.07;1.20;;;;;;;21.09;53.14;97917.31;8382978;28;20214;-80
2021/08/18 18:27:34;;;;;;;1.50;1.40;;;;;;;21.56;52.30;97914.91;8380679;28;20590;-81
2021/08/18 18:31:37;;;;;;;1.30;1.20;;;;;;;21.10;53.21;97921.63;8383001;28;20210;-81
2021/08/18 18:35:40;;;;;;;1.57;1.30;;;;;;;21.05;53.78;97916.75;8383121;28;20384;-81
2021/08/18 18:39:44;;;;;;;2.20;1.60;;;;;;;21.00;53.36;97918.13;8382948;28;20238;-81
2021/08/18 18:43:47;;;;;;;2.73;1.30;;;;;;;20.86;54.42;97922.78;8382137;28;20231;-82
2021/08/18 18:47:49;;;;;;;3.60;1.50;;;;;;;20.87;54.47;97921.03;8381797;28;20200;-81
2021/08/18 18:51:52;;;;;;;1.50;1.37;;;;;;;20.79;54.75;97923.47;8382433;28;20495;-81
2021/08/18 18:55:57;;;;;;;1.93;1.50;;;;;;;20.84;54.55;97922.09;8382387;28;20378;-81
2021/08/18 19:00:00;;;;;;;2.90;1.50;;;;;;;20.78;54.72;97920.00;8381837;28;20542;-82